sensor_id;sensor_type;location;lat;lon;timestamp;temperature;humidity
24518;DHT22;12678;51.336;12.406;2022-09-28T00:01:52;9.50;99.90
24518;DHT22;12678;51.336;12.406;2022-09-28T00:04:18;9.40;99.90
24518;DHT22;12678;51.336;12.406;2022-09-28T00:06:45;9.50;99.90
24518;DHT22;12678;51.336;12.406;2022-09-28T00:09:12;9.50;99.90
24518;DHT22;12678;51.336;12.406;2022-09-28T00:11:37;9.60;99.90
24518;DHT22;12678;51.336;12.406;2022-09-28T00:14:03;9.60;99.90
24518;DHT22;12678;51.336;12.406;2022-09-28T00:16:41;9.60;99.90
24518;DHT22;12678;51.336;12.406;2022-09-28T00:19:08;9.60;99.90
24518;DHT22;12678;51.336;12.406;2022-09-28T00:21:34;9.60;99.90
24518;DHT22;12678;51.336;12.406;2022-09-28T00:24:00;9.60;99.90
24518;DHT22;12678;51.336;12.406;2022-09-28T00:26:49;9.60;99.90
24518;DHT22;12678;51.336;12.406;2022-09-28T00:29:22;9.60;99.90
24518;DHT22;12678;51.336;12.406;2022-09-28T00:31:53;9.60;99.90
24518;DHT22;12678;51.336;12.406;2022-09-28T00:34:21;9.50;99.90
24518;DHT22;12678;51.336;12.406;2022-09-28T00:36:46;9.50;99.90
24518;DHT22;12678;51.336;12.406;2022-09-28T00:39:12;9.40;99.90
24518;DHT22;12678;51.336;12.406;2022-09-28T00:41:38;9.50;99.90
24518;DHT22;12678;51.336;12.406;2022-09-28T00:46:49;9.50;99.90
24518;DHT22;12678;51.336;12.406;2022-09-28T00:49:15;9.50;99.90
24518;DHT22;12678;51.336;12.406;2022-09-28T00:51:43;9.40;99.90
24518;DHT22;12678;51.336;12.406;2022-09-28T00:54:09;9.30;99.90
24518;DHT22;12678;51.336;12.406;2022-09-28T00:56:36;9.30;99.90
24518;DHT22;12678;51.336;12.406;2022-09-28T00:59:05;9.20;99.90
24518;DHT22;12678;51.336;12.406;2022-09-28T01:01:31;9.20;99.90
24518;DHT22;12678;51.336;12.406;2022-09-28T01:03:57;9.20;99.90
24518;DHT22;12678;51.336;12.406;2022-09-28T01:06:23;9.20;99.90
24518;DHT22;12678;51.336;12.406;2022-09-28T01:08:52;9.10;99.90
24518;DHT22;12678;51.336;12.406;2022-09-28T01:11:19;9.10;99.90
24518;DHT22;12678;51.336;12.406;2022-09-28T01:13:45;9.10;99.90
24518;DHT22;12678;51.336;12.406;2022-09-28T01:24:20;9.00;99.90
24518;DHT22;12678;51.336;12.406;2022-09-28T01:34:41;8.90;99.90
24518;DHT22;12678;51.336;12.406;2022-09-28T01:37:08;8.90;99.90
24518;DHT22;12678;51.336;12.406;2022-09-28T01:39:36;9.00;99.90
24518;DHT22;12678;51.336;12.406;2022-09-28T01:42:04;8.90;99.90
24518;DHT22;12678;51.336;12.406;2022-09-28T01:44:33;8.90;99.90
24518;DHT22;12678;51.336;12.406;2022-09-28T01:47:05;8.90;99.90
24518;DHT22;12678;51.336;12.406;2022-09-28T01:49:33;8.90;99.90
24518;DHT22;12678;51.336;12.406;2022-09-28T01:52:01;8.90;99.90
24518;DHT22;12678;51.336;12.406;2022-09-28T01:54:39;8.90;99.90
24518;DHT22;12678;51.336;12.406;2022-09-28T01:59:31;8.90;99.90
24518;DHT22;12678;51.336;12.406;2022-09-28T02:02:31;8.80;99.90
24518;DHT22;12678;51.336;12.406;2022-09-28T02:04:52;8.90;99.90
24518;DHT22;12678;51.336;12.406;2022-09-28T02:10:04;8.80;99.90
24518;DHT22;12678;51.336;12.406;2022-09-28T02:12:35;8.80;99.90
24518;DHT22;12678;51.336;12.406;2022-09-28T02:15:09;8.70;99.90
24518;DHT22;12678;51.336;12.406;2022-09-28T02:17:36;8.70;99.90
24518;DHT22;12678;51.336;12.406;2022-09-28T02:20:02;8.70;99.90
24518;DHT22;12678;51.336;12.406;2022-09-28T02:22:32;8.70;99.90
24518;DHT22;12678;51.336;12.406;2022-09-28T02:27:33;8.80;99.90
24518;DHT22;12678;51.336;12.406;2022-09-28T02:30:01;8.70;99.90
24518;DHT22;12678;51.336;12.406;2022-09-28T02:32:27;8.70;99.90
24518;DHT22;12678;51.336;12.406;2022-09-28T02:34:53;8.70;99.90
24518;DHT22;12678;51.336;12.406;2022-09-28T02:37:19;8.70;99.90
24518;DHT22;12678;51.336;12.406;2022-09-28T02:39:45;8.60;99.90
24518;DHT22;12678;51.336;12.406;2022-09-28T02:42:17;8.50;99.90
24518;DHT22;12678;51.336;12.406;2022-09-28T02:49:48;8.50;99.90
24518;DHT22;12678;51.336;12.406;2022-09-28T03:00:10;8.40;99.90
24518;DHT22;12678;51.336;12.406;2022-09-28T03:07:58;8.30;99.90
24518;DHT22;12678;51.336;12.406;2022-09-28T03:10:27;8.30;99.90
24518;DHT22;12678;51.336;12.406;2022-09-28T03:12:54;8.30;99.90
24518;DHT22;12678;51.336;12.406;2022-09-28T03:15:27;8.40;99.90
24518;DHT22;12678;51.336;12.406;2022-09-28T03:17:53;8.40;99.90
24518;DHT22;12678;51.336;12.406;2022-09-28T03:20:19;8.40;99.90
24518;DHT22;12678;51.336;12.406;2022-09-28T03:22:45;8.40;99.90
24518;DHT22;12678;51.336;12.406;2022-09-28T03:25:10;8.40;99.90
24518;DHT22;12678;51.336;12.406;2022-09-28T03:27:36;8.40;99.90
24518;DHT22;12678;51.336;12.406;2022-09-28T03:30:02;8.40;99.90
24518;DHT22;12678;51.336;12.406;2022-09-28T03:32:27;8.50;99.90
24518;DHT22;12678;51.336;12.406;2022-09-28T03:34:53;8.50;99.90
24518;DHT22;12678;51.336;12.406;2022-09-28T03:37:18;8.60;99.90
24518;DHT22;12678;51.336;12.406;2022-09-28T03:39:44;8.60;99.90
24518;DHT22;12678;51.336;12.406;2022-09-28T03:42:09;8.60;99.90
24518;DHT22;12678;51.336;12.406;2022-09-28T03:44:35;8.70;99.90
24518;DHT22;12678;51.336;12.406;2022-09-28T03:47:00;8.80;99.90
24518;DHT22;12678;51.336;12.406;2022-09-28T03:49:26;8.90;99.90
24518;DHT22;12678;51.336;12.406;2022-09-28T03:51:51;8.90;99.90
24518;DHT22;12678;51.336;12.406;2022-09-28T03:54:17;9.00;99.90
24518;DHT22;12678;51.336;12.406;2022-09-28T03:56:43;9.00;99.90
24518;DHT22;12678;51.336;12.406;2022-09-28T03:59:08;9.00;99.90
24518;DHT22;12678;51.336;12.406;2022-09-28T04:01:34;9.10;99.90
24518;DHT22;12678;51.336;12.406;2022-09-28T04:03:59;9.00;99.90
24518;DHT22;12678;51.336;12.406;2022-09-28T04:06:25;9.10;99.90
24518;DHT22;12678;51.336;12.406;2022-09-28T04:08:50;9.00;99.90
24518;DHT22;12678;51.336;12.406;2022-09-28T04:11:16;9.00;99.90
24518;DHT22;12678;51.336;12.406;2022-09-28T04:13:41;9.00;99.90
24518;DHT22;12678;51.336;12.406;2022-09-28T04:16:08;9.10;99.90
24518;DHT22;12678;51.336;12.406;2022-09-28T04:18:34;9.10;99.90
24518;DHT22;12678;51.336;12.406;2022-09-28T04:21:00;9.10;99.90
24518;DHT22;12678;51.336;12.406;2022-09-28T04:23:28;9.00;99.90
24518;DHT22;12678;51.336;12.406;2022-09-28T04:25:53;9.00;99.90
24518;DHT22;12678;51.336;12.406;2022-09-28T04:28:19;9.00;99.90
24518;DHT22;12678;51.336;12.406;2022-09-28T04:31:03;9.00;99.90
24518;DHT22;12678;51.336;12.406;2022-09-28T04:33:32;9.00;99.90
24518;DHT22;12678;51.336;12.406;2022-09-28T04:35:58;9.10;99.90
24518;DHT22;12678;51.336;12.406;2022-09-28T04:38:24;9.10;99.90
24518;DHT22;12678;51.336;12.406;2022-09-28T04:40:50;9.10;99.90
24518;DHT22;12678;51.336;12.406;2022-09-28T04:43:15;9.20;99.90
24518;DHT22;12678;51.336;12.406;2022-09-28T04:45:41;9.10;99.90
24518;DHT22;12678;51.336;12.406;2022-09-28T04:48:06;9.20;99.90
24518;DHT22;12678;51.336;12.406;2022-09-28T04:50:32;9.10;99.90
24518;DHT22;12678;51.336;12.406;2022-09-28T04:52:59;9.10;99.90
24518;DHT22;12678;51.336;12.406;2022-09-28T04:55:24;9.10;99.90
24518;DHT22;12678;51.336;12.406;2022-09-28T04:57:50;9.10;99.90
24518;DHT22;12678;51.336;12.406;2022-09-28T05:00:15;9.00;99.90
24518;DHT22;12678;51.336;12.406;2022-09-28T05:02:41;9.00;99.90
24518;DHT22;12678;51.336;12.406;2022-09-28T05:05:07;9.10;99.90
24518;DHT22;12678;51.336;12.406;2022-09-28T05:07:32;9.10;99.90
24518;DHT22;12678;51.336;12.406;2022-09-28T05:09:58;9.20;99.90
24518;DHT22;12678;51.336;12.406;2022-09-28T05:12:25;9.20;99.90
24518;DHT22;12678;51.336;12.406;2022-09-28T05:14:51;9.30;99.90
24518;DHT22;12678;51.336;12.406;2022-09-28T05:17:16;9.30;99.90
24518;DHT22;12678;51.336;12.406;2022-09-28T05:19:42;9.30;99.90
24518;DHT22;12678;51.336;12.406;2022-09-28T05:22:07;9.30;99.90
24518;DHT22;12678;51.336;12.406;2022-09-28T05:24:39;9.30;99.90
24518;DHT22;12678;51.336;12.406;2022-09-28T05:27:04;9.30;99.90
24518;DHT22;12678;51.336;12.406;2022-09-28T05:29:30;9.30;99.90
24518;DHT22;12678;51.336;12.406;2022-09-28T05:31:55;9.30;99.90
24518;DHT22;12678;51.336;12.406;2022-09-28T05:34:21;9.30;99.90
24518;DHT22;12678;51.336;12.406;2022-09-28T05:36:46;9.20;99.90
24518;DHT22;12678;51.336;12.406;2022-09-28T05:39:12;9.20;99.90
24518;DHT22;12678;51.336;12.406;2022-09-28T05:41:37;9.30;99.90
24518;DHT22;12678;51.336;12.406;2022-09-28T05:44:03;9.30;99.90
24518;DHT22;12678;51.336;12.406;2022-09-28T05:46:28;9.40;99.90
24518;DHT22;12678;51.336;12.406;2022-09-28T05:48:54;9.40;99.90
24518;DHT22;12678;51.336;12.406;2022-09-28T05:51:19;9.50;99.90
24518;DHT22;12678;51.336;12.406;2022-09-28T05:53:45;9.50;99.90
24518;DHT22;12678;51.336;12.406;2022-09-28T05:56:11;9.40;99.90
24518;DHT22;12678;51.336;12.406;2022-09-28T05:58:36;9.40;99.90
24518;DHT22;12678;51.336;12.406;2022-09-28T06:01:02;9.40;99.90
24518;DHT22;12678;51.336;12.406;2022-09-28T06:03:27;9.40;99.90
24518;DHT22;12678;51.336;12.406;2022-09-28T06:05:53;9.50;99.90
24518;DHT22;12678;51.336;12.406;2022-09-28T06:08:19;9.50;99.90
24518;DHT22;12678;51.336;12.406;2022-09-28T06:10:44;9.60;99.90
24518;DHT22;12678;51.336;12.406;2022-09-28T06:13:10;9.60;99.90
24518;DHT22;12678;51.336;12.406;2022-09-28T06:15:36;9.60;99.90
24518;DHT22;12678;51.336;12.406;2022-09-28T06:18:04;9.50;99.90
24518;DHT22;12678;51.336;12.406;2022-09-28T06:20:30;9.60;99.90
24518;DHT22;12678;51.336;12.406;2022-09-28T06:22:57;9.60;99.90
24518;DHT22;12678;51.336;12.406;2022-09-28T06:25:23;9.50;99.90
24518;DHT22;12678;51.336;12.406;2022-09-28T06:27:58;9.60;99.90
24518;DHT22;12678;51.336;12.406;2022-09-28T06:30:24;9.50;99.90
24518;DHT22;12678;51.336;12.406;2022-09-28T06:32:52;9.50;99.90
24518;DHT22;12678;51.336;12.406;2022-09-28T06:35:19;9.40;99.90
24518;DHT22;12678;51.336;12.406;2022-09-28T06:37:45;9.50;99.90
24518;DHT22;12678;51.336;12.406;2022-09-28T06:40:11;9.50;99.90
24518;DHT22;12678;51.336;12.406;2022-09-28T06:42:36;9.40;99.90
24518;DHT22;12678;51.336;12.406;2022-09-28T06:45:02;9.50;99.90
24518;DHT22;12678;51.336;12.406;2022-09-28T06:47:28;9.40;99.90
24518;DHT22;12678;51.336;12.406;2022-09-28T06:49:55;9.40;99.90
24518;DHT22;12678;51.336;12.406;2022-09-28T06:52:21;9.40;99.90
24518;DHT22;12678;51.336;12.406;2022-09-28T06:54:47;9.40;99.90
24518;DHT22;12678;51.336;12.406;2022-09-28T06:57:12;9.40;99.90
24518;DHT22;12678;51.336;12.406;2022-09-28T06:59:37;9.30;99.90
24518;DHT22;12678;51.336;12.406;2022-09-28T07:02:03;9.30;99.90
24518;DHT22;12678;51.336;12.406;2022-09-28T07:04:29;9.30;99.90
24518;DHT22;12678;51.336;12.406;2022-09-28T07:06:55;9.30;99.90
24518;DHT22;12678;51.336;12.406;2022-09-28T07:09:21;9.40;99.90
24518;DHT22;12678;51.336;12.406;2022-09-28T07:11:47;9.40;99.90
24518;DHT22;12678;51.336;12.406;2022-09-28T07:14:12;9.40;99.90
24518;DHT22;12678;51.336;12.406;2022-09-28T07:16:38;9.40;99.90
24518;DHT22;12678;51.336;12.406;2022-09-28T07:19:03;9.40;99.90
24518;DHT22;12678;51.336;12.406;2022-09-28T07:21:29;9.40;99.90
24518;DHT22;12678;51.336;12.406;2022-09-28T07:23:55;9.40;99.90
24518;DHT22;12678;51.336;12.406;2022-09-28T07:26:20;9.40;99.90
24518;DHT22;12678;51.336;12.406;2022-09-28T07:28:45;9.40;99.90
24518;DHT22;12678;51.336;12.406;2022-09-28T07:31:11;9.40;99.90
24518;DHT22;12678;51.336;12.406;2022-09-28T07:33:36;9.50;99.90
24518;DHT22;12678;51.336;12.406;2022-09-28T07:36:02;9.50;99.90
24518;DHT22;12678;51.336;12.406;2022-09-28T07:38:33;9.50;99.90
24518;DHT22;12678;51.336;12.406;2022-09-28T07:40:59;9.50;99.90
24518;DHT22;12678;51.336;12.406;2022-09-28T07:43:36;9.50;99.90
24518;DHT22;12678;51.336;12.406;2022-09-28T07:46:04;9.50;99.90
24518;DHT22;12678;51.336;12.406;2022-09-28T07:48:34;9.60;99.90
24518;DHT22;12678;51.336;12.406;2022-09-28T07:51:01;9.60;99.90
24518;DHT22;12678;51.336;12.406;2022-09-28T07:53:26;9.70;99.90
24518;DHT22;12678;51.336;12.406;2022-09-28T07:55:53;9.70;99.90
24518;DHT22;12678;51.336;12.406;2022-09-28T07:58:18;9.80;99.90
24518;DHT22;12678;51.336;12.406;2022-09-28T08:00:45;9.80;99.90
24518;DHT22;12678;51.336;12.406;2022-09-28T08:03:13;9.80;99.90
24518;DHT22;12678;51.336;12.406;2022-09-28T08:05:38;9.80;99.90
24518;DHT22;12678;51.336;12.406;2022-09-28T08:08:05;9.70;99.90
24518;DHT22;12678;51.336;12.406;2022-09-28T08:10:31;9.70;99.90
24518;DHT22;12678;51.336;12.406;2022-09-28T08:12:56;9.70;99.90
24518;DHT22;12678;51.336;12.406;2022-09-28T08:15:23;9.70;99.90
24518;DHT22;12678;51.336;12.406;2022-09-28T08:17:48;9.60;99.90
24518;DHT22;12678;51.336;12.406;2022-09-28T08:20:14;9.60;99.90
24518;DHT22;12678;51.336;12.406;2022-09-28T08:23:05;9.60;99.90
24518;DHT22;12678;51.336;12.406;2022-09-28T08:25:31;9.70;99.90
24518;DHT22;12678;51.336;12.406;2022-09-28T08:27:57;9.70;99.90
24518;DHT22;12678;51.336;12.406;2022-09-28T08:30:22;9.70;99.90
24518;DHT22;12678;51.336;12.406;2022-09-28T08:32:48;9.70;99.90
24518;DHT22;12678;51.336;12.406;2022-09-28T08:35:14;9.70;99.90
24518;DHT22;12678;51.336;12.406;2022-09-28T08:37:39;9.80;99.90
24518;DHT22;12678;51.336;12.406;2022-09-28T08:40:07;9.80;99.90
24518;DHT22;12678;51.336;12.406;2022-09-28T08:42:38;9.80;99.90
24518;DHT22;12678;51.336;12.406;2022-09-28T08:45:07;9.70;99.90
24518;DHT22;12678;51.336;12.406;2022-09-28T08:47:35;9.70;99.90
24518;DHT22;12678;51.336;12.406;2022-09-28T08:50:25;9.60;99.90
24518;DHT22;12678;51.336;12.406;2022-09-28T08:52:55;9.50;99.90
24518;DHT22;12678;51.336;12.406;2022-09-28T08:55:27;9.40;99.90
24518;DHT22;12678;51.336;12.406;2022-09-28T08:58:04;9.40;99.90
24518;DHT22;12678;51.336;12.406;2022-09-28T09:00:41;9.40;99.90
24518;DHT22;12678;51.336;12.406;2022-09-28T09:03:10;9.30;99.90
24518;DHT22;12678;51.336;12.406;2022-09-28T09:08:40;9.40;99.90
24518;DHT22;12678;51.336;12.406;2022-09-28T09:13:54;9.40;99.90
24518;DHT22;12678;51.336;12.406;2022-09-28T09:16:26;9.50;99.90
24518;DHT22;12678;51.336;12.406;2022-09-28T09:18:57;9.60;99.90
24518;DHT22;12678;51.336;12.406;2022-09-28T09:26:45;9.60;99.90
24518;DHT22;12678;51.336;12.406;2022-09-28T09:29:25;9.70;99.90
24518;DHT22;12678;51.336;12.406;2022-09-28T09:31:58;9.70;99.90
24518;DHT22;12678;51.336;12.406;2022-09-28T09:37:03;9.90;99.90
24518;DHT22;12678;51.336;12.406;2022-09-28T09:39:34;9.90;99.90
24518;DHT22;12678;51.336;12.406;2022-09-28T09:47:22;10.00;99.90
24518;DHT22;12678;51.336;12.406;2022-09-28T09:49:53;10.10;99.90
24518;DHT22;12678;51.336;12.406;2022-09-28T09:52:25;10.20;99.90
24518;DHT22;12678;51.336;12.406;2022-09-28T09:54:58;10.30;99.90
24518;DHT22;12678;51.336;12.406;2022-09-28T09:57:45;10.30;99.90
24518;DHT22;12678;51.336;12.406;2022-09-28T10:00:15;10.30;99.90
24518;DHT22;12678;51.336;12.406;2022-09-28T10:02:42;10.30;99.90
24518;DHT22;12678;51.336;12.406;2022-09-28T10:07:59;10.60;99.90
24518;DHT22;12678;51.336;12.406;2022-09-28T10:12:48;10.70;99.90
24518;DHT22;12678;51.336;12.406;2022-09-28T10:15:17;10.70;99.90
24518;DHT22;12678;51.336;12.406;2022-09-28T10:17:44;10.80;99.90
24518;DHT22;12678;51.336;12.406;2022-09-28T10:20:13;10.80;99.90
24518;DHT22;12678;51.336;12.406;2022-09-28T10:22:39;10.90;99.90
24518;DHT22;12678;51.336;12.406;2022-09-28T10:25:05;10.80;99.90
24518;DHT22;12678;51.336;12.406;2022-09-28T10:27:33;10.80;99.90
24518;DHT22;12678;51.336;12.406;2022-09-28T10:32:25;10.80;99.90
24518;DHT22;12678;51.336;12.406;2022-09-28T10:34:52;10.80;99.90
24518;DHT22;12678;51.336;12.406;2022-09-28T10:37:19;10.60;99.90
24518;DHT22;12678;51.336;12.406;2022-09-28T10:39:49;10.70;99.90
24518;DHT22;12678;51.336;12.406;2022-09-28T10:42:17;10.80;99.90
24518;DHT22;12678;51.336;12.406;2022-09-28T10:44:50;10.70;99.90
24518;DHT22;12678;51.336;12.406;2022-09-28T10:47:18;10.70;99.90
24518;DHT22;12678;51.336;12.406;2022-09-28T10:49:44;10.60;99.90
24518;DHT22;12678;51.336;12.406;2022-09-28T10:52:28;10.50;99.90
24518;DHT22;12678;51.336;12.406;2022-09-28T10:54:54;10.50;99.90
24518;DHT22;12678;51.336;12.406;2022-09-28T10:57:25;10.60;99.90
24518;DHT22;12678;51.336;12.406;2022-09-28T10:59:51;10.50;99.90
24518;DHT22;12678;51.336;12.406;2022-09-28T11:02:20;10.50;99.90
24518;DHT22;12678;51.336;12.406;2022-09-28T11:04:54;10.40;99.90
24518;DHT22;12678;51.336;12.406;2022-09-28T11:07:22;10.30;99.90
24518;DHT22;12678;51.336;12.406;2022-09-28T11:09:49;10.30;99.90
24518;DHT22;12678;51.336;12.406;2022-09-28T11:12:19;10.20;99.90
24518;DHT22;12678;51.336;12.406;2022-09-28T11:17:15;10.30;99.90
24518;DHT22;12678;51.336;12.406;2022-09-28T11:19:41;10.30;99.90
24518;DHT22;12678;51.336;12.406;2022-09-28T11:22:24;10.30;99.90
24518;DHT22;12678;51.336;12.406;2022-09-28T11:24:51;10.50;99.90
24518;DHT22;12678;51.336;12.406;2022-09-28T11:27:23;10.50;99.90
24518;DHT22;12678;51.336;12.406;2022-09-28T11:29:56;10.50;99.90
24518;DHT22;12678;51.336;12.406;2022-09-28T11:32:27;10.60;99.90
24518;DHT22;12678;51.336;12.406;2022-09-28T11:34:55;10.70;99.90
24518;DHT22;12678;51.336;12.406;2022-09-28T11:37:24;10.80;99.90
24518;DHT22;12678;51.336;12.406;2022-09-28T11:45:25;10.90;99.90
24518;DHT22;12678;51.336;12.406;2022-09-28T11:53:15;10.90;99.90
24518;DHT22;12678;51.336;12.406;2022-09-28T11:55:46;11.00;99.90
24518;DHT22;12678;51.336;12.406;2022-09-28T12:00:41;11.30;99.90
24518;DHT22;12678;51.336;12.406;2022-09-28T12:03:11;11.40;99.90
24518;DHT22;12678;51.336;12.406;2022-09-28T12:05:40;11.60;99.90
24518;DHT22;12678;51.336;12.406;2022-09-28T12:13:16;11.80;99.90
24518;DHT22;12678;51.336;12.406;2022-09-28T12:18:23;11.80;99.90
24518;DHT22;12678;51.336;12.406;2022-09-28T12:20:51;11.70;99.90
24518;DHT22;12678;51.336;12.406;2022-09-28T12:23:21;11.80;99.90
24518;DHT22;12678;51.336;12.406;2022-09-28T12:26:03;11.90;99.90
24518;DHT22;12678;51.336;12.406;2022-09-28T12:30:56;12.00;99.90
24518;DHT22;12678;51.336;12.406;2022-09-28T12:33:23;12.00;99.90
24518;DHT22;12678;51.336;12.406;2022-09-28T12:44:01;11.90;99.90
24518;DHT22;12678;51.336;12.406;2022-09-28T12:51:53;12.10;99.90
24518;DHT22;12678;51.336;12.406;2022-09-28T12:59:41;11.60;99.90
24518;DHT22;12678;51.336;12.406;2022-09-28T13:17:38;11.00;99.90
24518;DHT22;12678;51.336;12.406;2022-09-28T13:22:38;11.30;99.90
24518;DHT22;12678;51.336;12.406;2022-09-28T13:25:13;11.40;99.90
24518;DHT22;12678;51.336;12.406;2022-09-28T13:27:40;11.60;99.90
24518;DHT22;12678;51.336;12.406;2022-09-28T13:30:11;11.60;99.90
24518;DHT22;12678;51.336;12.406;2022-09-28T13:32:37;11.60;99.90
24518;DHT22;12678;51.336;12.406;2022-09-28T13:35:03;11.60;99.90
24518;DHT22;12678;51.336;12.406;2022-09-28T13:37:29;11.60;99.90
24518;DHT22;12678;51.336;12.406;2022-09-28T13:39:55;11.50;99.90
24518;DHT22;12678;51.336;12.406;2022-09-28T13:50:12;11.50;99.90
24518;DHT22;12678;51.336;12.406;2022-09-28T13:58:20;11.70;99.90
24518;DHT22;12678;51.336;12.406;2022-09-28T14:00:49;11.80;99.90
24518;DHT22;12678;51.336;12.406;2022-09-28T14:08:34;11.90;99.90
24518;DHT22;12678;51.336;12.406;2022-09-28T14:11:29;11.90;99.90
24518;DHT22;12678;51.336;12.406;2022-09-28T14:16:24;12.20;99.90
24518;DHT22;12678;51.336;12.406;2022-09-28T14:18:56;12.20;99.90
24518;DHT22;12678;51.336;12.406;2022-09-28T14:26:49;12.00;99.90
24518;DHT22;12678;51.336;12.406;2022-09-28T14:29:24;11.80;99.90
24518;DHT22;12678;51.336;12.406;2022-09-28T14:32:19;11.70;99.90
24518;DHT22;12678;51.336;12.406;2022-09-28T14:34:43;11.70;99.90
24518;DHT22;12678;51.336;12.406;2022-09-28T14:37:17;11.70;99.90
24518;DHT22;12678;51.336;12.406;2022-09-28T14:40:18;11.60;99.90
24518;DHT22;12678;51.336;12.406;2022-09-28T14:45:48;11.60;99.90
24518;DHT22;12678;51.336;12.406;2022-09-28T14:48:17;11.60;99.90
24518;DHT22;12678;51.336;12.406;2022-09-28T14:50:43;11.60;99.90
24518;DHT22;12678;51.336;12.406;2022-09-28T14:53:18;11.50;99.90
24518;DHT22;12678;51.336;12.406;2022-09-28T14:55:46;11.60;99.90
24518;DHT22;12678;51.336;12.406;2022-09-28T14:58:19;11.60;99.90
24518;DHT22;12678;51.336;12.406;2022-09-28T15:00:47;11.60;99.90
24518;DHT22;12678;51.336;12.406;2022-09-28T15:03:14;11.60;99.90
24518;DHT22;12678;51.336;12.406;2022-09-28T15:05:44;11.60;99.90
24518;DHT22;12678;51.336;12.406;2022-09-28T15:08:11;11.60;99.90
24518;DHT22;12678;51.336;12.406;2022-09-28T15:10:37;11.50;99.90
24518;DHT22;12678;51.336;12.406;2022-09-28T15:15:45;11.50;99.90
24518;DHT22;12678;51.336;12.406;2022-09-28T15:20:38;11.50;99.90
24518;DHT22;12678;51.336;12.406;2022-09-28T15:23:21;11.60;99.90
24518;DHT22;12678;51.336;12.406;2022-09-28T15:25:50;11.60;99.90
24518;DHT22;12678;51.336;12.406;2022-09-28T15:28:17;11.60;99.90
24518;DHT22;12678;51.336;12.406;2022-09-28T15:30:42;11.50;99.90
24518;DHT22;12678;51.336;12.406;2022-09-28T15:33:21;11.40;99.90
24518;DHT22;12678;51.336;12.406;2022-09-28T15:36:06;11.30;99.90
24518;DHT22;12678;51.336;12.406;2022-09-28T15:38:32;11.20;99.90
24518;DHT22;12678;51.336;12.406;2022-09-28T15:40:59;11.20;99.90
24518;DHT22;12678;51.336;12.406;2022-09-28T15:43:28;11.30;99.90
24518;DHT22;12678;51.336;12.406;2022-09-28T15:51:10;11.50;99.90
24518;DHT22;12678;51.336;12.406;2022-09-28T15:56:10;11.50;99.90
24518;DHT22;12678;51.336;12.406;2022-09-28T15:58:36;11.40;99.90
24518;DHT22;12678;51.336;12.406;2022-09-28T16:12:19;11.10;99.90
24518;DHT22;12678;51.336;12.406;2022-09-28T16:14:52;11.10;99.90
24518;DHT22;12678;51.336;12.406;2022-09-28T16:17:29;11.00;99.90
24518;DHT22;12678;51.336;12.406;2022-09-28T16:19:57;10.90;99.90
24518;DHT22;12678;51.336;12.406;2022-09-28T16:22:23;10.80;99.90
24518;DHT22;12678;51.336;12.406;2022-09-28T16:24:58;10.80;99.90
24518;DHT22;12678;51.336;12.406;2022-09-28T16:27:26;10.80;99.90
24518;DHT22;12678;51.336;12.406;2022-09-28T16:32:36;10.80;99.90
24518;DHT22;12678;51.336;12.406;2022-09-28T16:37:37;10.70;99.90
24518;DHT22;12678;51.336;12.406;2022-09-28T16:40:10;10.70;99.90
24518;DHT22;12678;51.336;12.406;2022-09-28T16:42:35;10.70;99.90
24518;DHT22;12678;51.336;12.406;2022-09-28T16:45:02;10.70;99.90
24518;DHT22;12678;51.336;12.406;2022-09-28T16:47:29;10.60;99.90
24518;DHT22;12678;51.336;12.406;2022-09-28T16:49:58;10.60;99.90
24518;DHT22;12678;51.336;12.406;2022-09-28T16:52:24;10.70;99.90
24518;DHT22;12678;51.336;12.406;2022-09-28T16:55:11;10.60;99.90
24518;DHT22;12678;51.336;12.406;2022-09-28T16:57:40;10.60;99.90
24518;DHT22;12678;51.336;12.406;2022-09-28T17:00:08;10.60;99.90
24518;DHT22;12678;51.336;12.406;2022-09-28T17:02:33;10.50;99.90
24518;DHT22;12678;51.336;12.406;2022-09-28T17:05:00;10.50;99.90
24518;DHT22;12678;51.336;12.406;2022-09-28T17:07:26;10.50;99.90
24518;DHT22;12678;51.336;12.406;2022-09-28T17:09:52;10.50;99.90
24518;DHT22;12678;51.336;12.406;2022-09-28T17:12:18;10.50;99.90
24518;DHT22;12678;51.336;12.406;2022-09-28T17:14:45;10.50;99.90
24518;DHT22;12678;51.336;12.406;2022-09-28T17:17:11;10.50;99.90
24518;DHT22;12678;51.336;12.406;2022-09-28T17:19:36;10.50;99.90
24518;DHT22;12678;51.336;12.406;2022-09-28T17:22:02;10.40;99.90
24518;DHT22;12678;51.336;12.406;2022-09-28T17:24:27;10.40;99.90
24518;DHT22;12678;51.336;12.406;2022-09-28T17:26:53;10.40;99.90
24518;DHT22;12678;51.336;12.406;2022-09-28T17:29:19;10.50;99.90
24518;DHT22;12678;51.336;12.406;2022-09-28T17:31:45;10.50;99.90
24518;DHT22;12678;51.336;12.406;2022-09-28T17:34:11;10.50;99.90
24518;DHT22;12678;51.336;12.406;2022-09-28T17:36:36;10.50;99.90
24518;DHT22;12678;51.336;12.406;2022-09-28T17:39:03;10.50;99.90
24518;DHT22;12678;51.336;12.406;2022-09-28T17:41:28;10.60;99.90
24518;DHT22;12678;51.336;12.406;2022-09-28T17:43:54;10.50;99.90
24518;DHT22;12678;51.336;12.406;2022-09-28T17:48:45;10.30;99.90
24518;DHT22;12678;51.336;12.406;2022-09-28T17:51:14;10.30;99.90
24518;DHT22;12678;51.336;12.406;2022-09-28T17:53:40;10.30;99.90
24518;DHT22;12678;51.336;12.406;2022-09-28T17:56:05;10.20;99.90
24518;DHT22;12678;51.336;12.406;2022-09-28T17:58:31;10.20;99.90
24518;DHT22;12678;51.336;12.406;2022-09-28T18:00:56;10.20;99.90
24518;DHT22;12678;51.336;12.406;2022-09-28T18:03:22;10.20;99.90
24518;DHT22;12678;51.336;12.406;2022-09-28T18:05:49;10.20;99.90
24518;DHT22;12678;51.336;12.406;2022-09-28T18:08:18;10.10;99.90
24518;DHT22;12678;51.336;12.406;2022-09-28T18:10:44;10.10;99.90
24518;DHT22;12678;51.336;12.406;2022-09-28T18:13:11;10.10;99.90
24518;DHT22;12678;51.336;12.406;2022-09-28T18:15:36;10.20;99.90
24518;DHT22;12678;51.336;12.406;2022-09-28T18:18:02;10.20;99.90
24518;DHT22;12678;51.336;12.406;2022-09-28T18:20:27;10.20;99.90
24518;DHT22;12678;51.336;12.406;2022-09-28T18:22:54;10.20;99.90
24518;DHT22;12678;51.336;12.406;2022-09-28T18:25:20;10.20;99.90
24518;DHT22;12678;51.336;12.406;2022-09-28T18:27:45;10.30;99.90
24518;DHT22;12678;51.336;12.406;2022-09-28T18:30:11;10.20;99.90
24518;DHT22;12678;51.336;12.406;2022-09-28T18:32:36;10.20;99.90
24518;DHT22;12678;51.336;12.406;2022-09-28T18:35:03;10.20;99.90
24518;DHT22;12678;51.336;12.406;2022-09-28T18:37:28;10.10;99.90
24518;DHT22;12678;51.336;12.406;2022-09-28T18:39:54;10.10;99.90
24518;DHT22;12678;51.336;12.406;2022-09-28T18:42:19;10.10;99.90
24518;DHT22;12678;51.336;12.406;2022-09-28T18:44:45;10.00;99.90
24518;DHT22;12678;51.336;12.406;2022-09-28T18:47:11;10.00;99.90